createdAt,value
2022-12-27T00:01:24.587Z,30.17
2022-12-27T00:03:50.875Z,30.33
2022-12-27T00:06:17.158Z,29.63
2022-12-27T00:08:44.161Z,29.27
2022-12-27T00:11:10.977Z,28.20
2022-12-27T00:13:37.354Z,28.60
2022-12-27T00:16:03.696Z,27.83
2022-12-27T00:18:30.137Z,28.20
2022-12-27T00:20:57.544Z,28.77
2022-12-27T00:23:24.451Z,26.85
2022-12-27T00:25:50.895Z,27.27
2022-12-27T00:28:17.174Z,28.27
2022-12-27T00:30:43.498Z,27.00
2022-12-27T00:33:09.862Z,26.33
2022-12-27T00:35:36.239Z,26.80
2022-12-27T00:38:03.893Z,26.25
2022-12-27T00:40:30.416Z,26.50
2022-12-27T00:42:57.157Z,25.10
2022-12-27T00:45:23.504Z,25.73
2022-12-27T00:47:50.337Z,25.05
2022-12-27T00:50:17.254Z,24.02
2022-12-27T00:52:44.022Z,24.33
2022-12-27T00:55:10.398Z,24.02
2022-12-27T00:57:36.871Z,23.20
2022-12-27T01:00:09.588Z,23.02
2022-12-27T01:02:37.224Z,23.40
2022-12-27T01:05:03.603Z,22.15
2022-12-27T01:07:29.927Z,22.88
2022-12-27T01:09:56.476Z,22.83
2022-12-27T01:12:23.240Z,22.15
2022-12-27T01:14:49.938Z,20.73
2022-12-27T01:17:16.285Z,20.58
2022-12-27T01:19:42.640Z,21.85
2022-12-27T01:22:09.016Z,20.95
2022-12-27T01:24:35.631Z,20.10
2022-12-27T01:27:02.406Z,20.23
2022-12-27T01:29:28.727Z,19.70
2022-12-27T01:31:55.116Z,19.73
2022-12-27T01:34:21.646Z,20.08
2022-12-27T01:36:48.385Z,19.52
2022-12-27T01:39:14.943Z,19.25
2022-12-27T01:41:41.543Z,19.23
2022-12-27T01:44:08.211Z,19.08
2022-12-27T01:46:35.186Z,18.48
2022-12-27T01:49:05.096Z,18.25
2022-12-27T01:51:31.662Z,17.17
2022-12-27T01:53:58.015Z,16.25
2022-12-27T01:56:24.841Z,17.00
2022-12-27T01:58:51.231Z,18.38
2022-12-27T02:01:17.718Z,17.08
2022-12-27T02:03:44.962Z,16.42
2022-12-27T02:06:11.959Z,16.23
2022-12-27T02:08:38.690Z,15.93
2022-12-27T02:11:05.295Z,15.63
2022-12-27T02:13:32.118Z,16.58
2022-12-27T02:15:58.702Z,15.63
2022-12-27T02:18:25.767Z,15.45
2022-12-27T02:20:52.176Z,14.98
2022-12-27T02:23:18.510Z,14.88
2022-12-27T02:25:45.290Z,15.52
2022-12-27T02:28:11.862Z,14.35
2022-12-27T02:30:38.268Z,15.45
2022-12-27T02:33:05.251Z,15.18
2022-12-27T02:35:31.581Z,14.68
2022-12-27T02:37:57.903Z,15.07
2022-12-27T02:40:24.181Z,14.68
2022-12-27T02:42:50.569Z,14.50
2022-12-27T02:45:17.011Z,13.90
2022-12-27T02:47:43.749Z,13.05
2022-12-27T02:50:10.029Z,14.18
2022-12-27T02:52:36.457Z,12.80
2022-12-27T02:55:03.244Z,12.90
2022-12-27T02:57:29.820Z,13.23
2022-12-27T02:59:56.078Z,12.98
2022-12-27T03:02:22.826Z,13.23
2022-12-27T03:04:49.644Z,11.52
2022-12-27T03:07:15.905Z,12.75
2022-12-27T03:09:42.405Z,11.40
2022-12-27T03:12:09.144Z,12.20
2022-12-27T03:14:35.884Z,11.57
2022-12-27T03:17:02.730Z,11.57
2022-12-27T03:19:29.438Z,11.43
2022-12-27T03:21:56.097Z,11.65
2022-12-27T03:24:22.646Z,10.13
2022-12-27T03:26:49.037Z,11.40
2022-12-27T03:29:15.406Z,11.18
2022-12-27T03:31:41.678Z,11.27
2022-12-27T03:34:08.239Z,10.63
2022-12-27T03:36:34.733Z,10.07
2022-12-27T03:39:01.127Z,10.50
2022-12-27T03:41:27.402Z,10.70
2022-12-27T03:43:53.848Z,9.93
2022-12-27T03:46:20.235Z,9.73
2022-12-27T03:48:46.904Z,10.07
2022-12-27T03:51:13.218Z,10.38
2022-12-27T03:53:39.572Z,9.65
2022-12-27T03:56:05.971Z,9.30
2022-12-27T03:58:32.682Z,9.73
2022-12-27T04:00:59.606Z,9.23
2022-12-27T04:03:26.512Z,9.13
2022-12-27T04:05:53.268Z,9.02
2022-12-27T04:08:19.689Z,9.55
2022-12-27T04:10:46.044Z,8.85
2022-12-27T04:13:12.434Z,8.23
2022-12-27T04:15:38.853Z,8.38
2022-12-27T04:18:05.742Z,8.82
2022-12-27T04:20:32.016Z,8.32
2022-12-27T04:22:58.380Z,8.18
2022-12-27T04:25:24.678Z,7.97
2022-12-27T04:27:51.084Z,8.07
2022-12-27T04:30:17.619Z,8.07
2022-12-27T04:32:43.998Z,8.05
2022-12-27T04:35:10.293Z,7.97
2022-12-27T04:37:37.184Z,7.90
2022-12-27T04:40:03.840Z,8.32
2022-12-27T04:42:30.239Z,7.25
2022-12-27T04:44:56.985Z,8.05
2022-12-27T04:47:23.360Z,6.93
2022-12-27T04:49:49.772Z,7.70
2022-12-27T04:52:16.144Z,7.00
2022-12-27T04:54:42.460Z,7.22
2022-12-27T04:57:09.008Z,6.75
2022-12-27T04:59:35.389Z,7.15
2022-12-27T05:02:01.969Z,7.10
2022-12-27T05:04:28.426Z,6.93
2022-12-27T05:06:55.059Z,7.47
2022-12-27T05:09:23.304Z,7.15
2022-12-27T05:11:49.842Z,6.97
2022-12-27T05:14:16.112Z,6.35
2022-12-27T05:16:42.885Z,6.67
2022-12-27T05:19:09.520Z,6.40
2022-12-27T05:21:36.405Z,6.93
2022-12-27T05:24:05.565Z,6.85
2022-12-27T05:26:32.384Z,6.80
2022-12-27T05:28:58.738Z,5.78
2022-12-27T05:31:26.135Z,6.45
2022-12-27T05:33:52.769Z,5.47
2022-12-27T05:36:19.205Z,6.20
2022-12-27T05:38:45.590Z,6.60
2022-12-27T05:41:12.438Z,5.72
2022-12-27T05:43:38.811Z,5.90
2022-12-27T05:46:05.577Z,6.03
2022-12-27T05:48:32.383Z,5.85
2022-12-27T05:50:58.709Z,5.45
2022-12-27T05:53:25.627Z,5.60
2022-12-27T05:55:52.009Z,5.55
2022-12-27T05:58:18.372Z,5.15
2022-12-27T06:00:44.732Z,5.80
2022-12-27T06:03:11.205Z,5.28
2022-12-27T06:05:37.642Z,4.95
2022-12-27T06:08:04.637Z,5.38
2022-12-27T06:10:31.071Z,5.00
2022-12-27T06:12:57.450Z,5.38
2022-12-27T06:15:24.235Z,5.13
2022-12-27T06:17:50.670Z,4.90
2022-12-27T06:20:17.609Z,4.97
2022-12-27T06:22:44.174Z,5.03
2022-12-27T06:25:14.328Z,4.70
2022-12-27T06:30:07.807Z,4.82
2022-12-27T06:32:34.502Z,4.68
2022-12-27T06:35:00.825Z,4.78
2022-12-27T06:37:27.667Z,4.05
2022-12-27T06:39:53.998Z,4.38
2022-12-27T06:42:20.386Z,4.88
2022-12-27T06:44:47.203Z,4.60
2022-12-27T06:47:13.734Z,4.10
2022-12-27T06:49:40.055Z,4.32
2022-12-27T06:52:06.411Z,4.18
2022-12-27T06:54:32.826Z,4.25
2022-12-27T06:56:59.505Z,4.53
2022-12-27T06:59:25.859Z,4.18
2022-12-27T07:01:52.526Z,4.28
2022-12-27T07:04:19.080Z,4.50
2022-12-27T07:06:45.596Z,4.00
2022-12-27T07:09:12.258Z,4.20
2022-12-27T07:11:38.983Z,4.03
2022-12-27T07:14:05.277Z,4.25
2022-12-27T07:16:31.856Z,4.10
2022-12-27T07:18:58.251Z,4.13
2022-12-27T07:21:24.730Z,3.75
2022-12-27T07:23:51.089Z,3.90
2022-12-27T07:26:17.547Z,3.67
2022-12-27T07:28:44.260Z,3.17
2022-12-27T07:31:10.542Z,3.55
2022-12-27T07:33:37.051Z,4.40
2022-12-27T07:36:03.498Z,3.92
2022-12-27T07:38:29.899Z,3.78
2022-12-27T07:40:56.982Z,3.42
2022-12-27T07:43:23.428Z,3.47
2022-12-27T07:45:49.777Z,3.60
2022-12-27T07:48:16.903Z,3.92
2022-12-27T07:50:43.378Z,3.78
2022-12-27T07:53:10.307Z,3.53
2022-12-27T07:55:37.041Z,3.60
2022-12-27T07:58:03.651Z,3.78
2022-12-27T08:00:29.919Z,3.45
2022-12-27T08:02:56.830Z,3.50
2022-12-27T08:05:27.562Z,3.75
2022-12-27T08:07:54.289Z,3.13
2022-12-27T08:10:20.571Z,3.45
2022-12-27T08:12:47.010Z,3.65
2022-12-27T08:15:13.540Z,3.17
2022-12-27T08:17:39.956Z,3.35
2022-12-27T08:20:06.513Z,3.17
2022-12-27T08:22:33.349Z,2.97
2022-12-27T08:24:59.650Z,3.05
2022-12-27T08:27:26.016Z,2.97
2022-12-27T08:29:52.653Z,2.75
2022-12-27T08:32:19.511Z,3.13
2022-12-27T08:34:45.929Z,3.20
2022-12-27T08:37:12.343Z,3.42
2022-12-27T08:39:39.523Z,3.10
2022-12-27T08:42:05.904Z,3.60
2022-12-27T08:44:32.778Z,4.18
2022-12-27T08:46:59.739Z,3.08
2022-12-27T08:49:26.074Z,3.78
2022-12-27T08:51:52.905Z,3.70
2022-12-27T08:54:19.555Z,3.78
2022-12-27T08:56:46.269Z,3.40
2022-12-27T08:59:13.534Z,3.67
2022-12-27T09:01:40.077Z,3.90
2022-12-27T09:04:06.944Z,4.10
2022-12-27T09:06:33.551Z,4.65
2022-12-27T09:08:59.946Z,4.50
2022-12-27T09:11:26.394Z,3.90
2022-12-27T09:13:53.309Z,5.10
2022-12-27T09:16:19.867Z,4.20
2022-12-27T09:18:46.765Z,4.80
2022-12-27T09:21:13.924Z,4.68
2022-12-27T09:23:40.621Z,4.35
2022-12-27T09:26:07.323Z,4.47
2022-12-27T09:28:34.646Z,4.43
2022-12-27T09:31:00.990Z,5.15
2022-12-27T09:33:27.383Z,4.82
2022-12-27T09:35:54.018Z,4.88
2022-12-27T09:38:20.356Z,4.90
2022-12-27T09:40:46.881Z,5.50
2022-12-27T09:43:23.880Z,4.70
2022-12-27T09:45:51.872Z,5.47
2022-12-27T09:48:18.288Z,5.82
2022-12-27T09:50:44.835Z,5.57
2022-12-27T09:53:11.386Z,5.47
2022-12-27T09:55:38.004Z,5.80
2022-12-27T09:58:05.147Z,5.47
2022-12-27T10:00:34.601Z,5.00
2022-12-27T10:03:02.358Z,6.03
2022-12-27T10:05:28.747Z,5.03
2022-12-27T10:07:55.071Z,5.60
2022-12-27T10:10:21.550Z,5.65
2022-12-27T10:12:47.946Z,5.90
2022-12-27T10:15:14.538Z,5.18
2022-12-27T10:17:41.192Z,5.85
2022-12-27T10:20:07.551Z,5.95
2022-12-27T10:22:34.297Z,5.80
2022-12-27T10:25:00.888Z,5.10
2022-12-27T10:27:27.524Z,5.60
2022-12-27T10:29:53.950Z,5.55
2022-12-27T10:32:20.564Z,4.75
2022-12-27T10:34:47.055Z,5.50
2022-12-27T10:37:13.647Z,5.18
2022-12-27T10:39:40.015Z,5.93
2022-12-27T10:42:06.403Z,5.65
2022-12-27T10:44:32.759Z,5.53
2022-12-27T10:46:59.082Z,5.82
2022-12-27T10:49:25.610Z,5.55
2022-12-27T10:51:52.056Z,5.30
2022-12-27T10:54:18.874Z,5.47
2022-12-27T10:56:45.543Z,6.15
2022-12-27T10:59:11.906Z,5.68
2022-12-27T11:01:38.734Z,5.90
2022-12-27T11:04:05.510Z,5.40
2022-12-27T11:06:31.804Z,5.18
2022-12-27T11:08:58.111Z,5.22
2022-12-27T11:11:24.575Z,5.85
2022-12-27T11:13:51.005Z,5.45
2022-12-27T11:16:17.626Z,5.97
2022-12-27T11:18:43.947Z,5.40
2022-12-27T11:21:16.137Z,5.10
2022-12-27T11:23:48.175Z,5.07
2022-12-27T11:26:14.586Z,5.90
2022-12-27T11:28:41.177Z,5.15
2022-12-27T11:31:07.783Z,5.13
2022-12-27T11:33:34.305Z,4.70
2022-12-27T11:36:00.990Z,5.65
2022-12-27T11:38:27.320Z,5.10
2022-12-27T11:40:53.816Z,5.32
2022-12-27T11:43:20.712Z,5.25
2022-12-27T11:45:47.814Z,4.95
2022-12-27T11:48:14.528Z,5.22
2022-12-27T11:50:41.007Z,4.90
2022-12-27T11:53:07.844Z,5.13
2022-12-27T11:55:34.876Z,5.38
2022-12-27T11:58:01.657Z,5.03
2022-12-27T12:00:28.033Z,4.80
2022-12-27T12:02:54.491Z,4.60
2022-12-27T12:05:21.194Z,4.75
2022-12-27T12:07:47.883Z,4.50
2022-12-27T12:10:14.323Z,4.85
2022-12-27T12:12:40.875Z,4.63
2022-12-27T12:15:07.382Z,4.90
2022-12-27T12:17:36.309Z,5.10
2022-12-27T12:20:03.164Z,5.05
2022-12-27T12:22:29.483Z,5.35
2022-12-27T12:24:55.819Z,4.32
2022-12-27T12:27:22.146Z,4.72
2022-12-27T12:29:48.541Z,4.90
2022-12-27T12:32:14.914Z,5.22
2022-12-27T12:34:41.243Z,4.97
2022-12-27T12:37:08.131Z,4.47
2022-12-27T12:39:34.533Z,4.30
2022-12-27T12:42:01.114Z,3.88
2022-12-27T12:44:27.523Z,4.65
2022-12-27T12:46:53.943Z,4.43
2022-12-27T12:49:20.541Z,4.88
2022-12-27T12:51:47.535Z,4.18
2022-12-27T12:54:13.946Z,4.35
2022-12-27T12:56:40.623Z,4.47
2022-12-27T12:59:07.299Z,4.20
2022-12-27T13:01:33.701Z,4.50
2022-12-27T13:04:00.167Z,4.30
2022-12-27T13:06:27.467Z,4.60
2022-12-27T13:08:54.135Z,3.70
2022-12-27T13:11:20.975Z,3.92
2022-12-27T13:13:47.305Z,4.07
2022-12-27T13:16:13.680Z,4.65
2022-12-27T13:18:40.575Z,4.30
2022-12-27T13:21:07.159Z,4.25
2022-12-27T13:23:33.485Z,4.20
2022-12-27T13:25:59.826Z,4.30
2022-12-27T13:28:26.417Z,3.85
2022-12-27T13:30:53.454Z,4.22
2022-12-27T13:33:19.968Z,5.18
2022-12-27T13:35:46.388Z,5.53
2022-12-27T13:38:12.753Z,7.47
2022-12-27T13:40:39.515Z,8.20
2022-12-27T13:43:05.837Z,9.35
2022-12-27T13:45:32.321Z,12.30
2022-12-27T13:47:58.648Z,15.13
2022-12-27T13:50:25.104Z,16.50
2022-12-27T13:52:57.540Z,17.20
2022-12-27T13:55:27.263Z,16.80
2022-12-27T13:57:54.316Z,17.40
2022-12-27T14:00:20.648Z,18.45
2022-12-27T14:02:47.521Z,20.08
2022-12-27T14:05:14.059Z,19.55
2022-12-27T14:07:40.709Z,20.10
2022-12-27T14:10:07.510Z,20.08
2022-12-27T14:12:34.770Z,21.70
2022-12-27T14:15:01.372Z,22.42
2022-12-27T14:17:28.002Z,22.10
2022-12-27T14:19:54.381Z,21.80
2022-12-27T14:22:20.727Z,21.63
2022-12-27T14:24:47.734Z,20.92
2022-12-27T14:27:14.157Z,22.77
2022-12-27T14:29:40.511Z,22.30
2022-12-27T14:32:07.055Z,22.23
2022-12-27T14:34:33.715Z,20.52
2022-12-27T14:37:00.545Z,21.50
2022-12-27T14:39:27.028Z,21.10
2022-12-27T14:41:53.533Z,19.90
2022-12-27T14:44:19.899Z,20.15
2022-12-27T14:46:46.345Z,21.65
2022-12-27T14:49:13.589Z,21.13
2022-12-27T14:54:27.020Z,20.20
2022-12-27T14:56:53.778Z,20.73
2022-12-27T14:59:20.141Z,20.95
2022-12-27T15:01:46.891Z,19.85
2022-12-27T15:04:13.401Z,21.17
2022-12-27T15:06:39.920Z,19.83
2022-12-27T15:09:07.461Z,19.98
2022-12-27T15:11:34.426Z,21.52
2022-12-27T15:14:00.796Z,20.95
2022-12-27T15:16:27.809Z,20.75
2022-12-27T15:18:54.153Z,19.50
2022-12-27T15:21:20.474Z,19.85
2022-12-27T15:23:47.003Z,18.85
2022-12-27T15:26:13.717Z,19.20
2022-12-27T15:28:40.564Z,19.58
2022-12-27T15:31:07.108Z,19.23
2022-12-27T15:33:33.450Z,18.60
2022-12-27T15:35:59.816Z,18.58
2022-12-27T15:38:26.784Z,17.73
2022-12-27T15:40:53.249Z,18.33
2022-12-27T15:43:19.563Z,18.33
2022-12-27T15:45:45.987Z,17.13
2022-12-27T15:48:12.319Z,17.35
2022-12-27T15:50:38.977Z,16.60
2022-12-27T15:53:05.890Z,16.45
2022-12-27T15:55:32.301Z,16.33
2022-12-27T15:57:59.018Z,16.00
2022-12-27T16:00:27.126Z,15.85
2022-12-27T16:02:56.674Z,15.82
2022-12-27T16:05:23.168Z,14.93
2022-12-27T16:07:49.975Z,14.52
2022-12-27T16:10:16.832Z,14.73
2022-12-27T16:12:43.232Z,15.48
2022-12-27T16:15:09.564Z,15.38
2022-12-27T16:17:36.319Z,14.13
2022-12-27T16:20:02.825Z,13.55
2022-12-27T16:22:29.822Z,14.02
2022-12-27T16:24:56.200Z,12.75
2022-12-27T16:27:23.015Z,13.85
2022-12-27T16:29:49.367Z,14.07
2022-12-27T16:32:15.787Z,12.88
2022-12-27T16:34:42.199Z,13.40
2022-12-27T16:37:08.546Z,13.38
2022-12-27T16:39:35.088Z,11.93
2022-12-27T16:42:01.988Z,12.27
2022-12-27T16:44:30.646Z,12.00
2022-12-27T16:47:00.349Z,12.07
2022-12-27T16:49:26.755Z,12.35
2022-12-27T16:51:53.105Z,11.90
2022-12-27T16:54:19.987Z,12.45
2022-12-27T16:56:46.403Z,11.85
2022-12-27T16:59:12.746Z,11.82
2022-12-27T17:01:39.282Z,12.13
2022-12-27T17:04:05.728Z,11.90
2022-12-27T17:06:33.497Z,11.77
2022-12-27T17:16:58.227Z,97.13
2022-12-27T17:19:25.023Z,102.72
2022-12-27T17:21:51.792Z,91.15
2022-12-27T17:24:18.579Z,85.85
2022-12-27T17:26:45.779Z,79.28
2022-12-27T17:29:12.512Z,73.75
2022-12-27T17:31:39.258Z,69.35
2022-12-27T17:34:05.676Z,65.72
2022-12-27T17:36:32.983Z,61.08
2022-12-27T17:38:59.947Z,57.92
2022-12-27T17:41:26.626Z,53.10
2022-12-27T17:43:53.517Z,52.33
2022-12-27T17:46:20.656Z,48.95
2022-12-27T17:48:47.318Z,47.58
2022-12-27T17:51:14.468Z,42.28
2022-12-27T17:53:41.041Z,42.10
2022-12-27T17:56:07.616Z,39.38
2022-12-27T17:58:34.213Z,38.63
2022-12-27T18:01:00.873Z,66.10
2022-12-27T18:03:27.322Z,162.45
2022-12-27T18:05:53.694Z,199.00
2022-12-27T18:08:20.001Z,175.13
2022-12-27T18:10:46.411Z,157.80
2022-12-27T18:13:13.247Z,148.77
2022-12-27T18:15:39.673Z,286.35
2022-12-27T18:18:06.380Z,290.23
2022-12-27T18:20:33.167Z,258.02
2022-12-27T18:23:00.175Z,247.38
2022-12-27T18:25:26.583Z,230.35
2022-12-27T18:27:52.955Z,211.63
2022-12-27T18:30:19.394Z,207.40
2022-12-27T18:32:45.705Z,200.57
2022-12-27T18:35:11.998Z,183.55
2022-12-27T18:37:38.405Z,178.20
2022-12-27T18:40:04.713Z,174.10
2022-12-27T18:42:31.656Z,161.55
2022-12-27T18:44:58.929Z,157.57
2022-12-27T18:47:25.295Z,155.98
2022-12-27T18:49:51.860Z,147.60
2022-12-27T18:52:18.292Z,148.95
2022-12-27T18:54:44.681Z,137.75
2022-12-27T18:57:11.629Z,141.85
2022-12-27T18:59:37.993Z,139.75
2022-12-27T19:02:04.507Z,187.65
2022-12-27T19:04:31.022Z,240.68
2022-12-27T19:06:57.686Z,225.32
2022-12-27T19:09:24.544Z,214.95
2022-12-27T19:11:51.464Z,203.38
2022-12-27T19:14:17.831Z,194.05
2022-12-27T19:16:44.956Z,184.27
2022-12-27T19:19:11.292Z,224.75
2022-12-27T19:21:37.643Z,267.48
2022-12-27T19:24:04.045Z,233.68
2022-12-27T19:26:30.990Z,214.18
2022-12-27T19:28:57.944Z,212.80
2022-12-27T19:31:24.806Z,201.48
2022-12-27T19:33:51.534Z,184.75
2022-12-27T19:36:18.256Z,170.07
2022-12-27T19:41:24.747Z,159.43
2022-12-27T19:43:51.742Z,148.07
2022-12-27T19:46:18.304Z,213.02
2022-12-27T19:49:07.723Z,237.15
2022-12-27T19:51:31.623Z,262.13
2022-12-27T19:53:58.217Z,233.18
2022-12-27T19:56:24.864Z,226.07
2022-12-27T19:58:51.478Z,212.45
2022-12-27T20:01:17.978Z,197.75
2022-12-27T20:03:44.616Z,194.07
2022-12-27T20:06:15.363Z,298.55
2022-12-27T20:08:48.147Z,326.98
2022-12-27T20:11:15.701Z,294.45
2022-12-27T20:13:42.717Z,275.50
2022-12-27T20:16:09.509Z,266.70
2022-12-27T20:18:36.337Z,251.70
2022-12-27T20:21:03.036Z,241.48
2022-12-27T20:23:29.522Z,231.40
2022-12-27T20:25:56.240Z,224.18
2022-12-27T20:28:22.971Z,210.77
2022-12-27T20:30:49.340Z,203.13
2022-12-27T20:33:16.003Z,179.57
2022-12-27T20:35:42.744Z,149.93
2022-12-27T20:38:09.801Z,121.40
2022-12-27T20:40:36.698Z,100.63
2022-12-27T20:43:03.795Z,90.05
2022-12-27T20:45:31.172Z,88.28
2022-12-27T20:47:58.092Z,81.88
2022-12-27T20:50:24.963Z,79.05
2022-12-27T20:52:51.303Z,76.45
2022-12-27T20:55:17.549Z,68.47
2022-12-27T20:57:44.571Z,68.90
2022-12-27T21:00:11.275Z,64.03
2022-12-27T21:02:37.686Z,63.65
2022-12-27T21:05:04.276Z,62.53
2022-12-27T21:07:31.270Z,55.30
2022-12-27T21:09:57.616Z,120.78
2022-12-27T21:12:24.534Z,158.13
2022-12-27T21:14:50.975Z,151.07
2022-12-27T21:17:17.654Z,140.13
2022-12-27T21:19:44.133Z,136.85
2022-12-27T21:22:10.643Z,128.15
2022-12-27T21:24:37.661Z,123.97
2022-12-27T21:27:04.358Z,117.22
2022-12-27T21:29:31.382Z,199.40
2022-12-27T21:31:57.687Z,259.05
2022-12-27T21:34:24.640Z,265.70
2022-12-27T21:36:50.976Z,244.95
2022-12-27T21:39:17.622Z,226.70
2022-12-27T21:41:44.703Z,221.10
2022-12-27T21:44:11.102Z,205.40
2022-12-27T21:46:37.762Z,199.38
2022-12-27T21:49:04.143Z,186.70
2022-12-27T21:51:31.243Z,183.02
2022-12-27T21:53:58.080Z,282.40
2022-12-27T21:56:24.697Z,344.10
2022-12-27T21:58:51.279Z,322.08
2022-12-27T22:01:18.384Z,293.85
2022-12-27T22:03:45.402Z,282.90
2022-12-27T22:06:11.872Z,276.13
2022-12-27T22:08:38.150Z,250.98
2022-12-27T22:11:04.814Z,237.85
2022-12-27T22:13:31.954Z,230.00
2022-12-27T22:15:59.031Z,227.85
2022-12-27T22:18:25.628Z,208.73
2022-12-27T22:20:52.079Z,157.70
2022-12-27T22:23:18.764Z,198.52
2022-12-27T22:25:45.406Z,241.52
2022-12-27T22:28:11.975Z,278.92
2022-12-27T22:30:38.267Z,258.40
2022-12-27T22:33:05.742Z,258.65
2022-12-27T22:35:32.902Z,248.23
2022-12-27T22:37:59.687Z,244.48
2022-12-27T22:40:40.855Z,234.50
2022-12-27T22:43:13.023Z,228.82
2022-12-27T22:45:39.521Z,377.73
2022-12-27T22:48:06.237Z,477.02
2022-12-27T22:50:32.637Z,450.42
2022-12-27T22:52:59.291Z,423.10
2022-12-27T22:55:26.993Z,401.38
2022-12-27T22:57:54.409Z,378.70
2022-12-27T23:00:20.987Z,368.40
2022-12-27T23:02:47.843Z,362.10
2022-12-27T23:05:15.610Z,355.95
2022-12-27T23:08:04.220Z,339.13
2022-12-27T23:10:28.443Z,336.35
2022-12-27T23:12:55.221Z,326.85
2022-12-27T23:15:21.666Z,321.52
2022-12-27T23:17:47.948Z,308.85
2022-12-27T23:20:15.449Z,306.67
2022-12-27T23:22:41.872Z,297.75
2022-12-27T23:25:08.381Z,290.67
2022-12-27T23:27:35.288Z,290.42
2022-12-27T23:30:01.679Z,276.00
2022-12-27T23:32:28.179Z,278.48
2022-12-27T23:34:54.857Z,263.85
2022-12-27T23:37:21.223Z,258.38
2022-12-27T23:39:47.927Z,254.48
2022-12-27T23:42:14.358Z,252.13
2022-12-27T23:44:40.755Z,240.27
2022-12-27T23:47:07.197Z,234.70
2022-12-27T23:49:34.181Z,240.85
2022-12-27T23:52:00.809Z,229.90
2022-12-27T23:54:27.478Z,225.68
2022-12-27T23:56:53.839Z,218.57
2022-12-27T23:59:20.230Z,215.23
